createdAt,value
2022-12-31T00:01:51.316Z,11.80
2022-12-31T00:04:18.341Z,10.50
2022-12-31T00:06:46.052Z,10.80
2022-12-31T00:09:12.867Z,10.10
2022-12-31T00:11:40.252Z,11.50
2022-12-31T00:14:07.331Z,10.90
2022-12-31T00:16:37.549Z,12.00
2022-12-31T00:19:06.097Z,13.00
2022-12-31T00:21:34.187Z,12.00
2022-12-31T00:24:02.448Z,12.00
2022-12-31T00:26:31.777Z,10.40
2022-12-31T00:29:00.453Z,10.30
2022-12-31T00:31:30.441Z,11.60
2022-12-31T00:33:57.900Z,11.90
2022-12-31T00:36:26.024Z,11.60
2022-12-31T00:38:54.434Z,12.70
2022-12-31T00:41:22.685Z,10.90
2022-12-31T00:43:49.687Z,10.40
2022-12-31T00:46:16.767Z,10.50
2022-12-31T00:48:44.090Z,11.00
2022-12-31T00:51:13.287Z,10.70
2022-12-31T00:53:39.997Z,10.70
2022-12-31T00:56:12.423Z,11.40
2022-12-31T00:58:39.558Z,9.90
2022-12-31T01:01:16.569Z,11.40
2022-12-31T01:03:43.847Z,11.10
2022-12-31T01:06:11.387Z,11.30
2022-12-31T01:08:38.141Z,9.30
2022-12-31T01:11:22.794Z,11.20
2022-12-31T01:13:52.024Z,9.70
2022-12-31T01:16:22.142Z,10.10
2022-12-31T01:18:49.269Z,8.50
2022-12-31T01:21:16.893Z,9.80
2022-12-31T01:23:43.888Z,9.00
2022-12-31T01:26:12.770Z,8.70
2022-12-31T01:28:39.603Z,9.90
2022-12-31T01:31:12.811Z,10.70
2022-12-31T01:33:40.045Z,9.00
2022-12-31T01:36:25.557Z,9.70
2022-12-31T01:38:54.245Z,8.30
2022-12-31T01:41:24.113Z,8.80
2022-12-31T01:43:57.280Z,7.60
2022-12-31T01:46:23.963Z,9.40
2022-12-31T01:48:55.252Z,9.00
2022-12-31T01:51:23.054Z,8.20
2022-12-31T01:53:50.627Z,9.30
2022-12-31T01:56:20.106Z,8.50
2022-12-31T01:58:51.518Z,9.10
2022-12-31T02:01:27.847Z,9.80
2022-12-31T02:03:56.607Z,10.30
2022-12-31T02:06:33.687Z,8.60
2022-12-31T02:09:00.970Z,8.30
2022-12-31T02:11:36.589Z,9.40
2022-12-31T02:14:09.856Z,8.30
2022-12-31T02:16:52.412Z,9.10
2022-12-31T02:19:43.978Z,9.40
2022-12-31T02:22:35.099Z,9.80
2022-12-31T02:25:10.754Z,9.10
2022-12-31T02:28:08.022Z,9.30
2022-12-31T02:30:36.385Z,9.40
2022-12-31T02:33:06.012Z,9.60
2022-12-31T02:35:47.018Z,9.40
2022-12-31T02:38:24.984Z,10.30
2022-12-31T02:40:54.025Z,9.30
2022-12-31T02:43:20.750Z,9.70
2022-12-31T02:46:30.920Z,9.80
2022-12-31T02:49:04.165Z,10.10
2022-12-31T02:51:48.525Z,9.10
2022-12-31T02:54:38.095Z,10.00
2022-12-31T02:57:21.597Z,9.90
2022-12-31T03:00:28.033Z,8.80
2022-12-31T03:02:55.935Z,9.80
2022-12-31T03:05:26.912Z,9.40
2022-12-31T03:07:54.273Z,8.80
2022-12-31T03:10:21.537Z,7.80
2022-12-31T03:12:49.348Z,9.20
2022-12-31T03:15:31.408Z,9.40
2022-12-31T03:18:01.050Z,8.20
2022-12-31T03:20:51.477Z,8.80
2022-12-31T03:23:25.413Z,9.40
2022-12-31T03:28:23.794Z,10.00
2022-12-31T03:30:55.430Z,9.70
2022-12-31T03:33:23.215Z,10.70
2022-12-31T03:35:50.402Z,9.90
2022-12-31T03:38:18.671Z,9.60
2022-12-31T03:40:51.663Z,9.50
2022-12-31T03:43:19.682Z,10.20
2022-12-31T03:45:54.269Z,10.90
2022-12-31T03:48:23.355Z,8.60
2022-12-31T03:50:51.028Z,9.20
2022-12-31T03:53:18.291Z,8.80
2022-12-31T03:55:45.008Z,8.40
2022-12-31T03:58:11.717Z,9.30
2022-12-31T04:00:38.543Z,8.90
2022-12-31T04:03:06.307Z,8.30
2022-12-31T04:05:33.827Z,9.80
2022-12-31T04:08:00.566Z,9.20
2022-12-31T04:10:27.395Z,8.80
2022-12-31T04:12:54.205Z,8.20
2022-12-31T04:15:21.396Z,7.90
2022-12-31T04:17:48.498Z,8.40
2022-12-31T04:20:16.482Z,9.30
2022-12-31T04:22:44.123Z,8.30
2022-12-31T04:25:11.742Z,9.10
2022-12-31T04:27:40.850Z,7.90
2022-12-31T04:30:09.874Z,8.00
2022-12-31T04:32:36.655Z,8.50
2022-12-31T04:35:03.907Z,8.60
2022-12-31T04:37:30.668Z,8.00
2022-12-31T04:40:02.002Z,8.40
2022-12-31T04:42:32.443Z,9.40
2022-12-31T04:44:59.160Z,9.40
2022-12-31T04:47:25.848Z,7.60
2022-12-31T04:49:52.542Z,8.70
2022-12-31T04:52:19.274Z,9.60
2022-12-31T04:54:45.985Z,7.70
2022-12-31T04:57:12.784Z,7.70
2022-12-31T04:59:39.743Z,8.10
2022-12-31T05:02:06.620Z,8.00
2022-12-31T05:04:33.608Z,6.90
2022-12-31T05:07:00.323Z,7.00
2022-12-31T05:09:28.493Z,7.10
2022-12-31T05:11:55.318Z,7.40
2022-12-31T05:14:22.364Z,7.70
2022-12-31T05:16:49.225Z,7.30
2022-12-31T05:19:16.425Z,6.30
2022-12-31T05:21:43.340Z,6.30
2022-12-31T05:24:10.117Z,7.40
2022-12-31T05:26:36.838Z,6.40
2022-12-31T05:29:03.547Z,7.20
2022-12-31T05:31:30.273Z,7.00
2022-12-31T05:33:57.210Z,7.10
2022-12-31T05:36:23.964Z,6.40
2022-12-31T05:38:50.654Z,7.00
2022-12-31T05:41:17.467Z,7.00
2022-12-31T05:43:44.184Z,7.90
2022-12-31T05:46:10.941Z,9.50
2022-12-31T05:48:37.686Z,8.40
2022-12-31T05:51:04.584Z,8.30
2022-12-31T05:53:31.301Z,8.50
2022-12-31T05:55:57.995Z,6.40
2022-12-31T05:58:25.777Z,6.60
2022-12-31T06:00:52.786Z,6.70
2022-12-31T06:03:19.607Z,6.60
2022-12-31T06:05:46.378Z,5.80
2022-12-31T06:08:13.152Z,6.80
2022-12-31T06:10:40.716Z,6.80
2022-12-31T06:13:08.093Z,6.40
2022-12-31T06:15:39.847Z,6.00
2022-12-31T06:18:06.910Z,6.30
2022-12-31T06:20:36.425Z,6.50
2022-12-31T06:23:03.545Z,5.80
2022-12-31T06:25:30.290Z,6.40
2022-12-31T06:27:56.956Z,6.10
2022-12-31T06:30:23.677Z,6.10
2022-12-31T06:32:50.371Z,6.60
2022-12-31T06:35:18.153Z,7.00
2022-12-31T06:37:44.926Z,7.10
2022-12-31T06:40:12.110Z,6.70
2022-12-31T06:42:38.835Z,7.30
2022-12-31T06:45:06.594Z,6.60
2022-12-31T06:47:33.313Z,7.10
2022-12-31T06:50:00.062Z,6.80
2022-12-31T06:52:26.820Z,7.00
2022-12-31T06:54:53.897Z,6.40
2022-12-31T06:57:20.902Z,6.50
2022-12-31T06:59:48.016Z,6.80
2022-12-31T07:02:36.766Z,6.80
2022-12-31T07:05:21.561Z,7.00
2022-12-31T07:07:51.130Z,6.70
2022-12-31T07:11:07.689Z,6.50
2022-12-31T07:13:52.657Z,6.90
2022-12-31T07:16:47.339Z,6.80
2022-12-31T07:19:25.196Z,6.40
2022-12-31T07:21:55.544Z,6.80
2022-12-31T07:24:22.642Z,5.00
2022-12-31T07:27:01.605Z,6.30
2022-12-31T07:32:19.502Z,6.30
2022-12-31T07:34:56.050Z,6.50
2022-12-31T07:37:29.651Z,7.00
2022-12-31T07:39:58.997Z,7.30
2022-12-31T07:43:05.133Z,7.30
2022-12-31T07:45:59.156Z,7.40
2022-12-31T07:48:28.132Z,7.60
2022-12-31T07:50:57.060Z,6.70
2022-12-31T07:53:25.277Z,6.40
2022-12-31T07:55:58.576Z,5.60
2022-12-31T07:58:40.847Z,6.20
2022-12-31T08:01:28.328Z,6.90
2022-12-31T08:04:17.454Z,7.60
2022-12-31T08:06:59.429Z,6.50
2022-12-31T08:09:33.705Z,6.10
2022-12-31T08:12:02.161Z,5.80
2022-12-31T08:14:29.935Z,7.40
2022-12-31T08:16:57.469Z,7.10
2022-12-31T08:22:16.778Z,7.50
2022-12-31T08:25:04.618Z,9.00
2022-12-31T08:27:42.102Z,7.70
2022-12-31T08:30:21.363Z,7.40
2022-12-31T08:33:06.774Z,7.50
2022-12-31T08:35:36.303Z,7.70
2022-12-31T08:38:09.174Z,8.60
2022-12-31T08:41:13.901Z,9.00
2022-12-31T08:43:49.662Z,8.10
2022-12-31T08:46:34.593Z,10.20
2022-12-31T08:49:01.527Z,9.80
2022-12-31T08:51:28.522Z,9.10
2022-12-31T08:53:55.690Z,9.60
2022-12-31T08:56:29.038Z,10.70
2022-12-31T08:59:37.365Z,11.90
2022-12-31T09:02:10.241Z,10.20
2022-12-31T09:04:58.392Z,11.20
2022-12-31T09:07:37.480Z,11.60
2022-12-31T09:10:21.594Z,10.90
2022-12-31T09:13:06.431Z,11.30
2022-12-31T09:15:36.464Z,12.70
2022-12-31T09:18:03.595Z,12.50
2022-12-31T09:20:42.851Z,12.00
2022-12-31T09:23:11.648Z,11.80
2022-12-31T09:25:59.890Z,12.60
2022-12-31T09:28:26.668Z,11.50
2022-12-31T09:31:32.574Z,12.10
2022-12-31T09:34:34.562Z,11.60
2022-12-31T09:37:13.769Z,15.50
2022-12-31T09:39:43.678Z,14.00
2022-12-31T09:42:28.420Z,13.00
2022-12-31T09:45:13.628Z,11.70
2022-12-31T09:47:46.399Z,13.00
2022-12-31T09:50:19.531Z,13.50
2022-12-31T09:53:04.616Z,13.20
2022-12-31T09:55:45.597Z,12.10
2022-12-31T09:58:42.793Z,11.20
2022-12-31T10:01:36.249Z,11.70
2022-12-31T10:04:32.913Z,11.50
2022-12-31T10:07:43.142Z,14.10
2022-12-31T10:10:22.659Z,13.70
2022-12-31T10:13:28.642Z,13.20
2022-12-31T10:16:21.013Z,12.60
2022-12-31T10:19:12.498Z,12.10
2022-12-31T10:22:14.336Z,12.50
2022-12-31T10:25:18.948Z,11.10
2022-12-31T10:28:24.009Z,12.20
2022-12-31T10:31:15.733Z,11.80
2022-12-31T10:33:53.016Z,10.20
2022-12-31T10:36:31.838Z,11.60
2022-12-31T10:39:24.020Z,11.90
2022-12-31T10:42:06.663Z,11.40
2022-12-31T10:45:05.447Z,10.90
2022-12-31T10:47:47.474Z,11.50
2022-12-31T10:50:21.865Z,13.10
2022-12-31T10:53:09.852Z,12.30
2022-12-31T10:56:16.733Z,13.20
2022-12-31T10:59:21.343Z,11.80
2022-12-31T11:02:09.971Z,12.40
2022-12-31T11:04:58.933Z,11.40
2022-12-31T11:07:58.889Z,11.80
2022-12-31T11:10:40.733Z,11.80
2022-12-31T11:13:35.439Z,12.20
2022-12-31T11:16:30.248Z,11.60
2022-12-31T11:19:22.739Z,12.20
2022-12-31T11:22:04.490Z,12.00
2022-12-31T11:24:42.367Z,11.20
2022-12-31T11:27:37.036Z,12.40
2022-12-31T11:30:22.419Z,12.30
2022-12-31T11:33:07.354Z,12.40
2022-12-31T11:36:05.257Z,12.70
2022-12-31T11:38:44.756Z,14.10
2022-12-31T11:41:13.956Z,12.10
2022-12-31T11:44:02.003Z,12.00
2022-12-31T11:46:34.693Z,13.40
2022-12-31T11:49:22.941Z,13.70
2022-12-31T11:52:24.067Z,12.90
2022-12-31T11:55:23.488Z,13.00
2022-12-31T11:57:52.372Z,14.90
2022-12-31T12:00:20.896Z,15.20
2022-12-31T12:02:54.015Z,15.30
2022-12-31T12:05:23.796Z,17.90
2022-12-31T12:07:52.378Z,14.60
2022-12-31T12:10:23.221Z,15.40
2022-12-31T12:12:51.394Z,13.20
2022-12-31T12:15:23.072Z,13.40
2022-12-31T12:17:54.110Z,13.80
2022-12-31T12:20:40.969Z,13.30
2022-12-31T12:23:21.556Z,11.60
2022-12-31T12:25:48.222Z,12.70
2022-12-31T12:28:25.086Z,12.00
2022-12-31T12:30:58.935Z,12.80
2022-12-31T12:33:27.379Z,13.10
2022-12-31T12:35:54.088Z,11.90
2022-12-31T12:38:23.188Z,12.70
2022-12-31T12:41:02.519Z,11.90
2022-12-31T12:43:37.643Z,12.00
2022-12-31T12:46:18.588Z,17.50
2022-12-31T12:48:49.481Z,19.00
2022-12-31T12:51:31.614Z,14.30
2022-12-31T12:54:33.544Z,13.60
2022-12-31T12:57:06.163Z,11.90
2022-12-31T12:59:38.759Z,11.70
2022-12-31T13:02:50.371Z,10.00
2022-12-31T13:05:57.079Z,7.90
2022-12-31T13:08:52.250Z,11.30
2022-12-31T13:11:28.385Z,12.00
2022-12-31T13:14:34.369Z,13.80
2022-12-31T13:17:29.315Z,15.20
2022-12-31T13:20:10.897Z,16.30
2022-12-31T13:23:11.498Z,15.60
2022-12-31T13:26:17.328Z,14.00
2022-12-31T13:28:47.329Z,15.40
2022-12-31T13:31:27.821Z,14.60
2022-12-31T13:34:32.011Z,13.60
2022-12-31T13:37:05.664Z,14.90
2022-12-31T13:39:38.867Z,15.10
2022-12-31T13:42:30.342Z,15.00
2022-12-31T13:45:04.255Z,16.10
2022-12-31T13:47:40.853Z,14.30
2022-12-31T13:50:31.509Z,15.00
2022-12-31T13:52:58.162Z,14.50
2022-12-31T13:55:40.423Z,16.00
2022-12-31T13:58:36.630Z,16.00
2022-12-31T14:01:20.051Z,16.30
2022-12-31T14:04:08.350Z,16.10
2022-12-31T14:06:51.859Z,15.80
2022-12-31T14:09:31.547Z,16.60
2022-12-31T14:11:58.258Z,18.60
2022-12-31T14:14:37.153Z,17.40
2022-12-31T14:17:19.900Z,17.70
2022-12-31T14:20:26.364Z,17.60
2022-12-31T14:23:27.553Z,17.70
2022-12-31T14:26:02.225Z,18.40
2022-12-31T14:28:36.923Z,17.10
2022-12-31T14:31:23.061Z,19.50
2022-12-31T14:33:59.349Z,17.70
2022-12-31T14:36:30.641Z,17.90
2022-12-31T14:39:20.039Z,17.30
2022-12-31T14:42:03.532Z,17.60
2022-12-31T14:45:06.801Z,18.80
2022-12-31T14:47:53.428Z,17.30
2022-12-31T14:50:31.451Z,19.40
2022-12-31T14:53:04.130Z,18.70
2022-12-31T14:55:36.546Z,20.30
2022-12-31T14:58:29.293Z,20.00
2022-12-31T15:03:30.624Z,19.70
2022-12-31T15:06:23.394Z,18.60
2022-12-31T15:11:41.473Z,18.90
2022-12-31T15:14:37.460Z,18.90
2022-12-31T15:17:22.949Z,19.00
2022-12-31T15:20:20.670Z,19.20
2022-12-31T15:22:49.928Z,17.80
2022-12-31T15:25:41.270Z,18.20
2022-12-31T15:28:29.533Z,17.80
2022-12-31T15:31:20.046Z,17.60
2022-12-31T15:33:59.718Z,18.60
2022-12-31T15:36:33.087Z,18.10
2022-12-31T15:39:07.789Z,18.70
2022-12-31T15:41:46.162Z,25.50
2022-12-31T15:44:45.164Z,21.90
2022-12-31T15:47:21.070Z,19.20
2022-12-31T15:49:48.424Z,19.60
2022-12-31T15:52:22.408Z,21.20
2022-12-31T15:54:56.414Z,18.90
2022-12-31T15:57:40.739Z,19.60
2022-12-31T16:00:17.157Z,23.20
2022-12-31T16:02:45.446Z,20.40
2022-12-31T16:05:41.602Z,20.10
2022-12-31T16:08:19.550Z,20.50
2022-12-31T16:10:46.809Z,22.80
2022-12-31T16:13:22.867Z,20.10
2022-12-31T16:16:00.457Z,22.10
2022-12-31T16:18:39.987Z,18.20
2022-12-31T16:21:28.385Z,19.50
2022-12-31T16:24:04.206Z,17.90
2022-12-31T16:26:52.536Z,21.00
2022-12-31T16:29:22.245Z,19.30
2022-12-31T16:31:51.175Z,23.90
2022-12-31T16:34:23.429Z,25.70
2022-12-31T16:37:02.591Z,27.00
2022-12-31T16:39:37.069Z,35.40
2022-12-31T16:42:18.659Z,24.60
2022-12-31T16:44:46.920Z,23.20
2022-12-31T16:47:19.470Z,20.20
2022-12-31T16:49:50.812Z,18.50
2022-12-31T16:52:32.418Z,18.20
2022-12-31T16:54:59.467Z,18.60
2022-12-31T16:57:30.307Z,18.90
2022-12-31T17:00:04.262Z,18.60
2022-12-31T17:02:35.512Z,19.90
2022-12-31T17:05:02.657Z,20.90
2022-12-31T17:07:32.237Z,20.50
2022-12-31T17:10:08.026Z,25.30
2022-12-31T17:13:17.025Z,28.80
2022-12-31T17:15:41.746Z,24.10
2022-12-31T17:18:17.943Z,30.70
2022-12-31T17:20:44.908Z,25.10
2022-12-31T17:23:22.842Z,19.70
2022-12-31T17:25:49.620Z,20.20
2022-12-31T17:28:24.928Z,19.10
2022-12-31T17:30:52.436Z,20.30
2022-12-31T17:35:55.141Z,19.80
2022-12-31T17:38:21.823Z,19.80
2022-12-31T17:41:06.785Z,17.40
2022-12-31T17:43:36.500Z,18.90
2022-12-31T17:46:11.023Z,17.70
2022-12-31T17:48:38.094Z,17.70
2022-12-31T17:51:05.077Z,18.40
2022-12-31T17:53:31.831Z,17.10
2022-12-31T17:56:02.890Z,21.30
2022-12-31T17:58:33.570Z,20.00
2022-12-31T18:01:02.106Z,19.10
2022-12-31T18:03:29.057Z,20.90
2022-12-31T18:05:55.915Z,20.40
2022-12-31T18:08:22.679Z,20.60
2022-12-31T18:10:51.277Z,21.20
2022-12-31T18:13:21.054Z,19.90
2022-12-31T18:15:47.791Z,19.50
2022-12-31T18:18:24.334Z,19.30
2022-12-31T18:20:58.969Z,19.60
2022-12-31T18:23:29.204Z,16.70
2022-12-31T18:25:56.018Z,19.70
2022-12-31T18:28:23.284Z,21.10
2022-12-31T18:30:50.236Z,18.50
2022-12-31T18:33:22.315Z,20.00
2022-12-31T18:36:09.875Z,17.80
2022-12-31T18:38:37.301Z,19.60
2022-12-31T18:41:04.503Z,19.60
2022-12-31T18:43:31.389Z,17.80
2022-12-31T18:45:58.530Z,18.90
2022-12-31T18:48:25.335Z,21.00
2022-12-31T18:50:52.176Z,16.90
2022-12-31T18:53:22.322Z,16.10
2022-12-31T18:55:54.913Z,15.50
2022-12-31T18:58:22.040Z,20.30
2022-12-31T19:00:50.689Z,22.00
2022-12-31T19:03:21.157Z,19.40
2022-12-31T19:05:50.756Z,17.50
2022-12-31T19:08:18.990Z,19.40
2022-12-31T19:10:46.698Z,18.20
2022-12-31T19:13:14.884Z,18.50
2022-12-31T19:15:50.655Z,18.20
2022-12-31T19:18:17.984Z,17.10
2022-12-31T19:20:45.282Z,17.10
2022-12-31T19:23:20.618Z,17.70
2022-12-31T19:25:48.915Z,21.80
2022-12-31T19:28:22.015Z,20.00
2022-12-31T19:30:48.736Z,18.70
2022-12-31T19:33:16.484Z,18.90
2022-12-31T19:35:44.119Z,19.40
2022-12-31T19:38:22.858Z,18.70
2022-12-31T19:40:50.852Z,20.20
2022-12-31T19:43:20.511Z,19.10
2022-12-31T19:45:47.783Z,16.60
2022-12-31T19:48:17.514Z,19.50
2022-12-31T19:50:50.188Z,17.20
2022-12-31T19:53:22.355Z,18.20
2022-12-31T19:55:50.169Z,16.80
2022-12-31T19:58:19.938Z,18.10
2022-12-31T20:00:55.595Z,15.90
2022-12-31T20:03:24.586Z,14.80
2022-12-31T20:05:51.344Z,17.00
2022-12-31T20:08:20.381Z,15.80
2022-12-31T20:10:47.179Z,16.70
2022-12-31T20:13:13.869Z,16.30
2022-12-31T20:15:47.635Z,18.90
2022-12-31T20:20:49.250Z,23.30
2022-12-31T20:23:20.367Z,22.40
2022-12-31T20:25:59.758Z,23.30
2022-12-31T20:28:26.857Z,22.80
2022-12-31T20:30:53.943Z,23.80
2022-12-31T20:33:20.805Z,22.50
2022-12-31T20:35:47.530Z,19.80
2022-12-31T20:38:14.360Z,19.30
2022-12-31T20:40:46.436Z,18.70
2022-12-31T20:43:13.760Z,16.40
2022-12-31T20:45:41.573Z,16.70
2022-12-31T20:48:08.443Z,17.90
2022-12-31T20:50:35.389Z,22.00
2022-12-31T20:53:02.444Z,23.80
2022-12-31T20:55:30.799Z,21.20
2022-12-31T20:57:57.705Z,23.70
2022-12-31T21:00:24.575Z,18.70
2022-12-31T21:02:58.981Z,14.60
2022-12-31T21:05:31.072Z,17.70
2022-12-31T21:07:58.317Z,15.60
2022-12-31T21:10:25.188Z,16.00
2022-12-31T21:12:54.475Z,17.50
2022-12-31T21:15:21.772Z,17.80
2022-12-31T21:17:48.594Z,16.70
2022-12-31T21:20:15.357Z,17.50
2022-12-31T21:22:42.066Z,15.10
2022-12-31T21:25:10.565Z,16.30
2022-12-31T21:27:37.319Z,15.80
2022-12-31T21:30:21.010Z,14.60
2022-12-31T21:32:48.569Z,15.40
2022-12-31T21:38:03.749Z,14.00
2022-12-31T21:40:31.512Z,14.30
2022-12-31T21:42:58.560Z,14.20
2022-12-31T21:45:25.835Z,13.50
2022-12-31T21:48:11.461Z,15.50
2022-12-31T21:50:38.171Z,13.00
2022-12-31T21:53:04.869Z,13.00
2022-12-31T21:55:50.438Z,13.40
2022-12-31T21:58:26.439Z,14.70
2022-12-31T22:01:13.441Z,12.70
2022-12-31T22:03:41.106Z,14.10
2022-12-31T22:06:12.552Z,13.80
2022-12-31T22:08:41.635Z,14.10
2022-12-31T22:11:09.488Z,14.20
2022-12-31T22:13:36.866Z,13.40
2022-12-31T22:18:38.635Z,13.40
2022-12-31T22:21:05.858Z,15.50
2022-12-31T22:23:34.279Z,13.70
2022-12-31T22:26:01.811Z,15.30
2022-12-31T22:28:44.205Z,13.60
2022-12-31T22:31:16.208Z,14.60
2022-12-31T22:33:43.790Z,13.00
2022-12-31T22:36:12.758Z,13.90
2022-12-31T22:38:39.809Z,12.10
2022-12-31T22:41:11.189Z,12.10
2022-12-31T22:43:42.486Z,12.50
2022-12-31T22:46:14.314Z,12.80
2022-12-31T22:48:41.987Z,16.80
2022-12-31T22:51:10.291Z,17.80
2022-12-31T22:53:38.638Z,13.80
2022-12-31T22:56:06.263Z,12.80
2022-12-31T22:58:33.151Z,12.70
2022-12-31T23:01:00.270Z,12.90
2022-12-31T23:03:27.107Z,12.60
2022-12-31T23:05:53.947Z,13.00
2022-12-31T23:08:23.699Z,12.40
2022-12-31T23:11:06.153Z,15.10
2022-12-31T23:14:00.115Z,24.40
2022-12-31T23:16:47.668Z,26.40
2022-12-31T23:19:34.818Z,15.20
2022-12-31T23:22:20.375Z,12.30
2022-12-31T23:24:47.077Z,11.70
2022-12-31T23:27:13.870Z,11.30
2022-12-31T23:29:46.840Z,11.30
2022-12-31T23:32:18.020Z,12.00
2022-12-31T23:34:46.131Z,11.70
2022-12-31T23:37:13.987Z,13.30
2022-12-31T23:39:41.164Z,12.30
2022-12-31T23:42:07.922Z,12.30
2022-12-31T23:44:34.657Z,17.40
2022-12-31T23:47:01.406Z,15.70
2022-12-31T23:49:28.097Z,14.60
2022-12-31T23:51:54.791Z,17.30
2022-12-31T23:54:21.729Z,16.40
2022-12-31T23:56:48.437Z,13.40
2022-12-31T23:59:15.166Z,14.10
